Time;durP1;ratioP1;P1;durP2;ratioP2;P2;SDS_P1;SDS_P2;PMS_P1;PMS_P2;Temp;Humidity;BMP_temperature;BMP_pressure;BME280_temperature;BME280_humidity;BME280_pressure;Samples;Min_cycle;Max_cycle;Signal;HPM_P1;HPM_P2
2022/05/11 00:01:18;;;;;;;5.30;4.90;;;18.80;68.40;19.30;96638.00;;;;5059838;28;20220;-81
2022/05/11 00:03:45;;;;;;;4.90;4.50;;;18.80;68.50;19.30;96637.00;;;;5065286;28;20656;-81
2022/05/11 00:06:12;;;;;;;5.30;4.90;;;18.80;68.60;19.30;96635.00;;;;5061575;28;21163;-82
2022/05/11 00:08:39;;;;;;;5.67;5.10;;;18.80;68.80;19.30;96628.00;;;;5059286;28;20220;-80
2022/05/11 00:11:07;;;;;;;5.17;4.77;;;18.70;68.80;19.20;96635.00;;;;5062514;28;20217;-80
2022/05/11 00:13:34;;;;;;;5.80;5.20;;;18.70;68.90;19.20;96628.00;;;;5060214;28;20196;-81
2022/05/11 00:16:03;;;;;;;4.90;4.50;;;18.70;69.00;19.20;96630.00;;;;5060400;28;20196;-81
2022/05/11 00:18:30;;;;;;;5.50;5.00;;;18.70;69.00;19.10;96628.00;;;;5060979;28;20677;-80
2022/05/11 00:20:58;;;;;;;4.90;4.50;;;18.70;69.10;19.10;96630.00;;;;5065234;28;20220;-80
2022/05/11 00:23:26;;;;;;;5.13;4.63;;;18.60;69.10;19.10;96631.00;;;;5063359;28;20246;-80
2022/05/11 00:25:53;;;;;;;5.13;4.73;;;18.60;69.10;19.10;96627.00;;;;5061058;28;20661;-82
2022/05/11 00:28:20;;;;;;;5.30;4.90;;;18.60;69.10;19.00;96623.00;;;;5062612;28;20200;-80
2022/05/11 00:30:47;;;;;;;4.57;4.17;;;18.50;69.20;19.00;96621.00;;;;5065441;28;20210;-80
2022/05/11 00:33:17;;;;;;;5.60;5.10;;;18.50;69.30;19.00;96622.00;;;;5061544;28;20542;-82
2022/05/11 00:35:48;;;;;;;5.30;4.90;;;18.50;69.40;18.90;96619.00;;;;5063778;28;20565;-80
2022/05/11 00:38:17;;;;;;;5.40;5.00;;;18.50;69.40;18.90;96622.00;;;;5062608;28;20204;-80
2022/05/11 00:40:48;;;;;;;5.10;4.70;;;18.40;69.40;18.90;96615.00;;;;5060347;28;20220;-80
2022/05/11 00:43:26;;;;;;;5.27;4.90;;;18.40;69.50;18.90;96615.00;;;;5065386;28;20192;-81
2022/05/11 00:45:54;;;;;;;5.10;4.70;;;18.40;69.50;18.80;96612.00;;;;5063916;28;20208;-82
2022/05/11 00:51:15;;;;;;;5.17;4.87;;;18.30;69.60;18.70;96603.00;;;;5066441;28;20234;-80
2022/05/11 00:53:51;;;;;;;5.13;4.73;;;18.30;69.60;18.60;96605.00;;;;5067005;28;20280;-80
2022/05/11 00:56:18;;;;;;;4.77;4.37;;;18.20;69.70;18.60;96611.00;;;;5064480;28;20208;-81
2022/05/11 00:58:51;;;;;;;4.73;4.43;;;18.20;69.70;18.60;96604.00;;;;5066338;28;20200;-80
2022/05/11 01:01:19;;;;;;;5.13;4.73;;;18.20;69.90;18.60;96607.00;;;;5065694;28;21388;-80
2022/05/11 01:03:53;;;;;;;5.20;4.80;;;18.10;69.80;18.50;96603.00;;;;5058142;28;20192;-80
2022/05/11 01:06:23;;;;;;;5.10;4.70;;;18.10;70.00;18.50;96598.00;;;;5060434;28;20195;-80
2022/05/11 01:08:50;;;;;;;5.37;4.87;;;18.00;70.00;18.40;96596.00;;;;5064478;28;20193;-80
2022/05/11 01:11:17;;;;;;;5.00;4.57;;;18.00;70.00;18.40;96608.00;;;;5061079;28;20238;-80
2022/05/11 01:13:46;;;;;;;5.10;4.73;;;17.90;70.20;18.40;96596.00;;;;5062527;28;20288;-80
2022/05/11 01:16:13;;;;;;;5.73;5.30;;;17.90;70.50;18.30;96600.00;;;;5065703;28;20192;-81
2022/05/11 01:18:42;;;;;;;5.30;4.83;;;17.90;70.50;18.30;96600.00;;;;5065647;28;20207;-80
2022/05/11 01:21:10;;;;;;;6.07;5.47;;;17.80;70.60;18.30;96597.00;;;;5065476;28;20227;-80
2022/05/11 01:23:46;;;;;;;4.83;4.43;;;17.80;70.70;18.20;96601.00;;;;5064530;28;20188;-80
2022/05/11 01:26:18;;;;;;;5.67;5.17;;;17.80;70.80;18.20;96592.00;;;;5063643;28;20188;-80
2022/05/11 01:28:49;;;;;;;5.37;4.87;;;17.70;70.90;18.20;96593.00;;;;5066510;28;20212;-81
2022/05/11 01:31:17;;;;;;;5.27;4.87;;;17.70;70.90;18.20;96598.00;;;;5065036;28;20232;-80
2022/05/11 01:33:49;;;;;;;4.60;4.30;;;17.70;70.90;18.10;96585.00;;;;5061222;28;20204;-80
2022/05/11 01:36:26;;;;;;;5.43;5.03;;;17.70;71.00;18.10;96594.00;;;;5063068;28;20208;-80
2022/05/11 01:38:56;;;;;;;5.17;4.77;;;17.70;71.10;18.10;96600.00;;;;5061553;28;20196;-80
2022/05/11 01:41:31;;;;;;;5.30;4.90;;;17.60;71.00;18.00;96595.00;;;;5062791;28;20234;-80
2022/05/11 01:44:00;;;;;;;5.10;4.70;;;17.60;71.20;18.00;96587.00;;;;5065107;28;20199;-80
2022/05/11 01:46:27;;;;;;;5.17;4.77;;;17.60;71.20;18.00;96588.00;;;;5066264;28;20665;-79
2022/05/11 01:48:54;;;;;;;5.30;4.90;;;17.50;71.10;17.90;96585.00;;;;5064372;28;20196;-79
2022/05/11 01:51:21;;;;;;;5.10;4.70;;;17.50;71.10;17.90;96583.00;;;;5062256;28;20243;-80
2022/05/11 01:53:49;;;;;;;12.87;5.03;;;17.50;71.20;17.90;96589.00;;;;5066556;28;20192;-79
2022/05/11 01:56:20;;;;;;;4.97;4.57;;;17.40;71.20;17.90;96583.00;;;;5065401;28;20204;-82
2022/05/11 01:58:51;;;;;;;4.93;4.57;;;17.40;71.30;17.80;96590.00;;;;5064361;28;20219;-80
2022/05/11 02:01:22;;;;;;;5.07;4.67;;;17.40;71.30;17.80;96587.00;;;;5064487;28;20230;-80
2022/05/11 02:03:49;;;;;;;5.60;4.90;;;17.30;71.40;17.80;96586.00;;;;5059775;28;20189;-80
2022/05/11 02:09:02;;;;;;;5.07;4.57;;;17.30;71.50;17.70;96579.00;;;;5064829;28;20311;-79
2022/05/11 02:11:29;;;;;;;5.00;4.60;;;17.30;71.60;17.70;96576.00;;;;5064104;28;20219;-79
2022/05/11 02:13:58;;;;;;;5.57;5.10;;;17.20;71.70;17.60;96579.00;;;;5065182;28;21302;-81
2022/05/11 02:16:26;;;;;;;5.43;4.97;;;17.20;71.80;17.60;96586.00;;;;5058794;28;20192;-79
2022/05/11 02:18:54;;;;;;;5.50;5.00;;;17.20;72.10;17.60;96580.00;;;;5062643;28;20203;-81
2022/05/11 02:21:21;;;;;;;5.27;4.87;;;17.10;72.20;17.60;96582.00;;;;5060860;28;20224;-80
2022/05/11 02:23:50;;;;;;;5.57;4.67;;;17.20;72.40;17.60;96577.00;;;;5057572;28;20197;-80
2022/05/11 02:26:19;;;;;;;5.77;5.27;;;17.10;72.40;17.60;96577.00;;;;5059350;28;20322;-80
2022/05/11 02:28:48;;;;;;;5.30;4.90;;;17.10;72.40;17.50;96580.00;;;;5061147;28;20192;-80
2022/05/11 02:31:17;;;;;;;5.53;5.13;;;17.10;72.40;17.50;96579.00;;;;5060550;28;20224;-80
2022/05/11 02:33:44;;;;;;;5.20;4.80;;;17.10;72.60;17.50;96580.00;;;;5060073;28;20204;-80
2022/05/11 02:36:12;;;;;;;5.37;4.87;;;17.00;72.30;17.50;96580.00;;;;5061328;28;20197;-80
2022/05/11 02:38:43;;;;;;;5.27;4.80;;;17.00;72.40;17.40;96577.00;;;;5061664;28;20275;-79
2022/05/11 02:41:11;;;;;;;5.30;4.90;;;17.00;72.50;17.40;96577.00;;;;5062703;28;20231;-80
2022/05/11 02:43:38;;;;;;;5.37;4.97;;;17.00;72.50;17.40;96575.00;;;;5061546;28;20200;-79
2022/05/11 02:46:05;;;;;;;4.93;4.53;;;16.90;72.40;17.30;96577.00;;;;5064403;28;20672;-80
2022/05/11 02:48:34;;;;;;;5.13;4.73;;;16.90;72.50;17.30;96581.00;;;;5064457;28;20207;-80
2022/05/11 02:51:01;;;;;;;5.20;4.80;;;16.90;72.60;17.30;96579.00;;;;5061495;28;20665;-79
2022/05/11 02:53:32;;;;;;;4.97;4.60;;;16.90;72.60;17.30;96574.00;;;;5065297;28;20196;-80
2022/05/11 02:56:00;;;;;;;5.27;4.87;;;16.80;72.60;17.30;96578.00;;;;5065389;28;20662;-80
2022/05/11 02:58:32;;;;;;;5.13;4.73;;;16.90;72.70;17.30;96581.00;;;;5062286;28;20188;-79
2022/05/11 03:06:06;;;;;;;4.40;4.10;;;16.70;72.70;17.20;96577.00;;;;5027258;28;20672;-90
2022/05/11 03:08:34;;;;;;;5.50;5.00;;;16.80;72.80;17.20;96576.00;;;;5030058;28;20197;-88
2022/05/11 03:11:01;;;;;;;5.53;5.10;;;16.70;72.70;17.10;96566.00;;;;5033894;28;20688;-87
2022/05/11 03:13:29;;;;;;;5.00;4.70;;;16.70;72.80;17.10;96571.00;;;;5026182;28;20309;-88
2022/05/11 03:15:56;;;;;;;4.77;4.37;;;16.70;72.70;17.10;96571.00;;;;5013820;28;20264;-90
2022/05/11 03:18:23;;;;;;;4.93;4.53;;;16.70;72.80;17.10;96581.00;;;;5013903;28;20198;-88
2022/05/11 03:20:50;;;;;;;6.03;5.40;;;16.60;72.70;17.00;96569.00;;;;5013426;28;20229;-89
2022/05/11 03:23:19;;;;;;;5.23;4.83;;;16.60;72.90;17.00;96581.00;;;;5011647;28;20222;-89
2022/05/11 03:25:46;;;;;;;4.77;4.40;;;16.50;72.90;17.00;96586.00;;;;5010443;28;20205;-88
2022/05/11 03:28:13;;;;;;;5.77;5.27;;;16.60;73.00;17.00;96578.00;;;;5009312;28;20275;-88
2022/05/11 03:30:40;;;;;;;5.27;4.87;;;16.90;73.30;17.00;96585.00;;;;5011456;28;20198;-87
2022/05/11 03:35:52;;;;;;;4.87;4.47;;;16.50;73.20;16.90;96585.00;;;;5008516;28;20252;-89
2022/05/11 03:38:20;;;;;;;5.33;4.87;;;16.40;73.20;16.90;96584.00;;;;5008123;28;20206;-90
2022/05/11 03:40:47;;;;;;;5.20;4.80;;;16.50;73.40;16.90;96574.00;;;;5008525;28;20596;-89
2022/05/11 03:43:14;;;;;;;4.97;4.57;;;16.50;73.50;16.90;96587.00;;;;5007678;28;20342;-89
2022/05/11 03:45:41;;;;;;;6.27;5.70;;;16.50;73.80;16.90;96583.00;;;;5005875;28;20194;-89
2022/05/11 03:48:09;;;;;;;5.23;4.83;;;16.40;73.90;16.90;96588.00;;;;5009924;28;20206;-88
2022/05/11 03:50:37;;;;;;;5.30;4.90;;;16.40;74.00;16.90;96584.00;;;;5008983;28;20290;-88
2022/05/11 03:53:05;;;;;;;4.47;4.17;;;16.50;74.20;17.00;96584.00;;;;5008960;28;20230;-90
2022/05/11 03:55:34;;;;;;;5.50;5.00;;;16.50;74.40;17.00;96585.00;;;;5007655;28;20220;-89
2022/05/11 03:58:01;;;;;;;4.63;4.33;;;16.60;74.60;17.00;96580.00;;;;5011467;28;20216;-87
2022/05/11 04:00:28;;;;;;;5.13;4.70;;;16.50;74.50;17.00;96583.00;;;;5007008;28;20222;-88
2022/05/11 04:05:43;;;;;;;4.80;4.40;;;16.60;74.70;17.00;96585.00;;;;5025811;28;20216;-91
2022/05/11 04:08:10;;;;;;;5.70;5.20;;;16.50;74.30;17.00;96581.00;;;;5040857;28;20197;-92
2022/05/11 04:10:39;;;;;;;5.20;4.80;;;16.50;74.40;17.10;96577.00;;;;5030601;28;20201;-92
2022/05/11 04:13:07;;;;;;;5.30;4.80;;;16.60;74.40;17.10;96578.00;;;;5024304;28;20573;-90
2022/05/11 04:15:34;;;;;;;5.40;4.90;;;16.60;74.40;17.10;96585.00;;;;5006842;28;20700;-92
2022/05/11 04:18:01;;;;;;;5.70;4.50;;;16.60;74.40;17.10;96584.00;;;;5006688;28;20218;-89
2022/05/11 04:20:31;;;;;;;4.93;4.57;;;16.60;74.40;17.10;96583.00;;;;5005327;28;20234;-91
2022/05/11 04:22:59;;;;;;;5.40;4.97;;;16.60;74.40;17.10;96595.00;;;;5005377;28;20754;-91
2022/05/11 04:25:56;;;;;;;5.20;4.73;;;16.50;74.40;17.10;96574.00;;;;4984684;28;20308;-91
2022/05/11 04:28:24;;;;;;;5.43;5.00;;;16.60;74.50;17.10;96569.00;;;;5000198;28;20645;-92
2022/05/11 04:30:51;;;;;;;4.83;4.47;;;16.60;74.50;17.20;96587.00;;;;5005087;28;20198;-89
2022/05/11 04:33:19;;;;;;;5.23;4.57;;;16.60;74.50;17.20;96590.00;;;;5004019;28;20281;-90
2022/05/11 04:35:46;;;;;;;5.10;4.70;;;16.60;74.80;17.20;96591.00;;;;5003844;28;20190;-90
2022/05/11 04:38:13;;;;;;;4.93;4.53;;;16.60;74.90;17.30;96593.00;;;;5006713;28;20230;-89
2022/05/11 04:40:40;;;;;;;4.83;4.53;;;16.70;75.00;17.30;96582.00;;;;5006419;28;20225;-89
2022/05/11 04:43:10;;;;;;;4.90;4.50;;;16.70;74.90;17.30;96591.00;;;;5005094;28;20202;-90
2022/05/11 04:45:39;;;;;;;4.70;4.30;;;16.70;75.10;17.40;96594.00;;;;5005616;28;20195;-90
2022/05/11 04:48:07;;;;;;;4.70;4.30;;;16.70;75.10;17.40;96603.00;;;;5006045;28;20730;-90
2022/05/11 04:50:37;;;;;;;4.37;4.07;;;16.80;75.10;17.40;96606.00;;;;5005779;28;20214;-90
2022/05/11 04:53:08;;;;;;;4.53;4.13;;;16.90;75.20;17.50;96604.00;;;;5007703;28;20784;-90
2022/05/11 04:55:42;;;;;;;5.00;4.37;;;16.80;75.00;17.50;96607.00;;;;5005647;28;20256;-90
2022/05/11 04:58:10;;;;;;;4.30;3.90;;;16.80;75.00;17.50;96601.00;;;;5006607;28;20198;-90
2022/05/11 05:00:37;;;;;;;4.77;3.90;;;16.90;75.00;17.60;96602.00;;;;5007876;28;20649;-90
2022/05/11 05:03:10;;;;;;;6.13;4.37;;;17.00;75.10;17.60;96604.00;;;;5006683;28;20202;-91
2022/05/11 05:05:37;;;;;;;5.77;4.57;;;17.00;75.20;17.60;96603.00;;;;5004524;28;20292;-91
2022/05/11 05:08:05;;;;;;;4.70;4.30;;;17.10;75.30;17.70;96603.00;;;;5008518;28;20571;-90
2022/05/11 05:10:33;;;;;;;4.87;4.30;;;17.10;75.30;17.70;96609.00;;;;5007262;28;20253;-91
2022/05/11 05:13:04;;;;;;;4.00;3.70;;;17.10;75.30;17.80;96615.00;;;;5005762;28;20198;-89
2022/05/11 05:15:45;;;;;;;3.73;3.43;;;17.10;75.30;17.80;96601.00;;;;5006566;28;20206;-90
2022/05/11 05:18:15;;;;;;;3.70;3.50;;;17.20;75.30;17.90;96605.00;;;;5008895;28;20202;-90
2022/05/11 05:20:42;;;;;;;3.60;3.30;;;17.20;75.20;18.00;96615.00;;;;5008577;28;20539;-90
2022/05/11 05:23:09;;;;;;;3.67;3.37;;;17.40;75.40;18.00;96611.00;;;;5006604;28;20668;-89
2022/05/11 05:25:36;;;;;;;3.60;3.40;;;17.70;75.60;18.10;96613.00;;;;5005748;28;20205;-90
2022/05/11 05:31:10;;;;;;;3.30;3.10;;;17.50;75.20;18.20;96631.00;;;;5007078;28;20213;-90
2022/05/11 05:33:43;;;;;;;4.07;3.67;;;17.60;75.10;18.30;96623.00;;;;5005266;28;20232;-90
2022/05/11 05:36:12;;;;;;;3.63;3.33;;;17.70;75.00;18.40;96626.00;;;;5006636;28;20295;-90
2022/05/11 05:38:39;;;;;;;3.43;3.13;;;17.70;74.90;18.50;96623.00;;;;5007180;28;20628;-90
2022/05/11 05:41:07;;;;;;;3.50;3.30;;;17.90;75.00;18.50;96628.00;;;;5007273;28;20292;-89
2022/05/11 05:43:34;;;;;;;3.80;3.50;;;17.90;74.90;18.60;96627.00;;;;5006305;28;20221;-91
2022/05/11 05:46:03;;;;;;;3.20;2.90;;;17.90;74.70;18.70;96628.00;;;;5009938;28;20751;-90
2022/05/11 05:48:30;;;;;;;3.90;3.40;;;18.00;74.70;18.80;96633.00;;;;5018097;28;20288;-90
2022/05/11 05:51:04;;;;;;;2.93;2.73;;;18.40;74.70;18.80;96631.00;;;;5029757;28;20660;-90
2022/05/11 05:53:31;;;;;;;3.03;2.83;;;18.20;74.20;18.90;96628.00;;;;5006535;28;20242;-90
2022/05/11 05:55:58;;;;;;;3.40;3.10;;;18.20;74.00;19.00;96632.00;;;;5011113;28;20236;-90
2022/05/11 05:58:25;;;;;;;3.93;3.00;;;18.30;73.90;19.10;96631.00;;;;4998078;28;20202;-90
2022/05/11 06:00:52;;;;;;;2.90;2.70;;;18.40;73.80;19.20;96638.00;;;;4999568;28;20234;-91
2022/05/11 06:03:24;;;;;;;3.03;2.83;;;18.50;73.80;19.30;96629.00;;;;5014833;28;20194;-90
2022/05/11 06:05:51;;;;;;;3.40;3.10;;;19.30;73.90;19.40;96641.00;;;;4993873;28;20317;-89
2022/05/11 06:08:19;;;;;;;3.03;2.83;;;18.70;73.30;19.40;96632.00;;;;5003321;28;20288;-88
2022/05/11 06:10:48;;;;;;;3.33;3.03;;;18.80;73.10;19.50;96629.00;;;;5003961;28;20294;-90
2022/05/11 06:13:17;;;;;;;3.50;2.80;;;18.90;73.00;19.60;96642.00;;;;5006526;28;20289;-90
2022/05/11 06:15:45;;;;;;;3.17;2.70;;;18.90;72.70;19.70;96641.00;;;;5007332;28;20705;-90
2022/05/11 06:18:13;;;;;;;3.40;3.00;;;19.10;72.60;19.80;96641.00;;;;5016511;28;20212;-91
2022/05/11 06:20:41;;;;;;;3.47;3.17;;;19.20;72.60;19.90;96642.00;;;;5023408;28;20201;-91
2022/05/11 06:23:09;;;;;;;2.90;2.70;;;19.20;72.40;20.10;96634.00;;;;5007802;28;20719;-90
2022/05/11 06:25:38;;;;;;;3.00;2.53;;;19.30;72.30;20.20;96631.00;;;;5007769;28;20198;-91
2022/05/11 06:28:08;;;;;;;2.90;2.70;;;19.40;72.20;20.30;96639.00;;;;5014526;28;20205;-90
2022/05/11 06:30:35;;;;;;;3.27;3.07;;;19.50;72.20;20.40;96641.00;;;;5007333;28;20199;-90
2022/05/11 06:33:04;;;;;;;2.83;2.63;;;19.60;72.00;20.50;96639.00;;;;5007014;28;20668;-90
2022/05/11 06:35:31;;;;;;;2.80;2.60;;;19.70;71.90;20.60;96645.00;;;;5014302;28;20202;-90
2022/05/11 06:38:04;;;;;;;3.07;2.77;;;19.80;71.70;20.80;96633.00;;;;5014526;28;20193;-91
2022/05/11 06:40:31;;;;;;;2.67;2.47;;;20.00;71.60;20.90;96646.00;;;;5013203;28;20292;-90
2022/05/11 06:43:01;;;;;;;2.30;2.20;;;20.10;71.60;21.00;96640.00;;;;5011838;28;20227;-90
2022/05/11 06:45:31;;;;;;;3.80;2.87;;;20.20;71.10;21.00;96644.00;;;;5011459;28;20215;-91
2022/05/11 06:47:59;;;;;;;2.70;2.50;;;20.30;70.90;21.10;96647.00;;;;5013156;28;20202;-90
2022/05/11 06:50:27;;;;;;;2.60;2.40;;;20.40;70.90;21.20;96648.00;;;;5011836;28;20574;-91
2022/05/11 06:52:56;;;;;;;2.77;2.57;;;20.50;70.70;21.30;96647.00;;;;5014195;28;20197;-90
2022/05/11 07:01:03;;;;;;;2.70;2.50;;;20.80;70.10;21.60;96647.00;;;;4996320;28;20201;-89
2022/05/11 07:03:30;;;;;;;2.07;1.97;;;20.90;70.20;21.70;96636.00;;;;5012297;28;20214;-90
2022/05/11 07:05:57;;;;;;;2.30;1.97;;;21.00;69.90;21.90;96641.00;;;;5012983;28;20700;-91
2022/05/11 07:08:24;;;;;;;2.20;2.00;;;21.10;69.80;22.00;96643.00;;;;5011834;28;20285;-91
2022/05/11 07:13:33;;;;;;;2.60;2.40;;;21.40;69.50;22.40;96642.00;;;;5010578;28;20220;-90
2022/05/11 07:16:00;;;;;;;2.40;2.20;;;21.60;69.70;22.60;96644.00;;;;5012269;28;20201;-90
2022/05/11 07:18:27;;;;;;;2.23;2.03;;;21.80;69.40;22.90;96644.00;;;;5009441;28;20205;-90
2022/05/11 07:20:54;;;;;;;2.47;2.10;;;22.00;69.10;23.10;96641.00;;;;5010700;28;20217;-90
2022/05/11 07:23:21;;;;;;;2.40;2.20;;;22.20;69.10;23.40;96644.00;;;;5012053;28;20317;-90
2022/05/11 07:25:49;;;;;;;2.40;2.27;;;22.40;68.80;23.60;96637.00;;;;5011332;28;20194;-90
2022/05/11 07:28:17;;;;;;;4.63;2.20;;;22.60;68.80;23.90;96641.00;;;;5013625;28;20211;-91
2022/05/11 07:30:47;;;;;;;2.17;2.00;;;22.80;68.50;24.20;96645.00;;;;5013052;28;20287;-90
2022/05/11 07:33:15;;;;;;;2.47;2.27;;;23.00;68.30;24.40;96645.00;;;;5008093;28;20232;-90
2022/05/11 07:35:43;;;;;;;2.30;2.20;;;23.30;67.90;24.70;96643.00;;;;5013646;28;20201;-91
2022/05/11 07:38:13;;;;;;;3.13;2.33;;;23.50;67.90;25.00;96643.00;;;;5010626;28;20206;-91
2022/05/11 07:40:40;;;;;;;3.03;2.10;;;23.70;67.60;25.20;96642.00;;;;5004227;28;20720;-87
2022/05/11 07:43:08;;;;;;;2.37;2.17;;;24.00;67.70;25.40;96640.00;;;;5012128;28;20226;-90
2022/05/11 07:45:38;;;;;;;2.30;2.10;;;24.20;66.70;25.70;96647.00;;;;5012418;28;20194;-91
2022/05/11 07:48:07;;;;;;;2.30;2.20;;;24.40;65.80;25.90;96641.00;;;;5009096;28;20194;-90
2022/05/11 07:50:35;;;;;;;2.67;2.40;;;24.60;65.80;26.10;96646.00;;;;5010223;28;20195;-90
2022/05/11 07:53:02;;;;;;;2.13;2.03;;;24.80;65.20;26.40;96642.00;;;;5012951;28;20201;-90
2022/05/11 07:55:29;;;;;;;2.00;1.90;;;25.10;64.90;26.70;96646.00;;;;5002400;28;20218;-90
2022/05/11 08:00:44;;;;;;;2.30;2.20;;;25.50;62.70;27.20;96638.00;;;;5011899;28;20200;-90
2022/05/11 08:03:11;;;;;;;2.37;2.27;;;25.70;62.70;27.40;96647.00;;;;5012814;28;20700;-90
2022/05/11 08:05:38;;;;;;;2.33;2.23;;;25.90;62.60;27.70;96646.00;;;;5011503;28;20198;-90
2022/05/11 08:08:09;;;;;;;2.30;2.20;;;26.10;61.80;28.00;96637.00;;;;5012617;28;20664;-91
2022/05/11 08:10:40;;;;;;;2.28;2.17;;;26.30;61.40;28.20;96635.00;;;;5015892;28;20202;-90
2022/05/11 08:13:08;;;;;;;2.20;2.10;;;26.50;60.70;28.50;96649.00;;;;5011835;28;20293;-89
2022/05/11 08:15:39;;;;;;;2.00;1.85;;;26.70;60.40;28.80;96651.00;;;;5009864;28;20201;-91
2022/05/11 08:18:12;;;;;;;2.15;2.05;;;26.90;60.20;29.00;96640.00;;;;5010420;28;20233;-91
2022/05/11 08:21:15;;;;;;;2.53;1.95;;;27.10;59.80;29.40;96639.00;;;;5012441;28;20256;-90
2022/05/11 08:23:46;;;;;;;2.08;1.98;;;27.40;59.50;29.70;96647.00;;;;5015786;28;20299;-91
2022/05/11 08:26:13;;;;;;;2.22;2.13;;;27.60;60.00;30.00;96652.00;;;;5015082;28;20281;-91
2022/05/11 08:28:40;;;;;;;2.38;2.20;;;27.80;59.40;30.30;96653.00;;;;5014234;28;20199;-90
2022/05/11 08:33:53;;;;;;;2.13;2.03;;;28.30;58.40;31.10;96656.00;;;;5018349;28;20252;-89
2022/05/11 08:36:23;;;;;;;2.20;2.00;;;28.60;58.00;31.60;96658.00;;;;5017946;28;20229;-90
2022/05/11 08:38:55;;;;;;;2.28;2.08;;;28.80;57.20;32.00;96651.00;;;;5012224;28;20220;-91
2022/05/11 08:41:45;;;;;;;1.80;1.70;;;29.20;55.90;32.40;96652.00;;;;5018530;28;20205;-91
2022/05/11 08:44:15;;;;;;;1.80;1.70;;;29.50;53.70;32.90;96654.00;;;;4991872;28;20305;-91
2022/05/11 08:47:07;;;;;;;2.20;2.00;;;29.90;55.60;33.30;96660.00;;;;5005597;28;20201;-90
2022/05/11 08:49:52;;;;;;;1.95;1.85;;;30.30;54.70;33.70;96650.00;;;;5007604;28;20225;-91
2022/05/11 08:52:37;;;;;;;2.30;2.10;;;30.70;54.10;34.10;96658.00;;;;5012814;28;20727;-91
2022/05/11 08:55:12;;;;;;;1.92;1.70;;;31.20;53.50;34.40;96649.00;;;;5009843;28;20376;-90
2022/05/11 08:57:41;;;;;;;1.70;1.60;;;31.70;52.70;34.70;96660.00;;;;5011981;28;20208;-91
2022/05/11 09:00:14;;;;;;;1.70;1.60;;;32.10;52.70;35.00;96656.00;;;;5005210;28;20583;-90
2022/05/11 09:02:52;;;;;;;1.85;1.75;;;32.50;50.30;35.30;96662.00;;;;5011062;28;20218;-91
2022/05/11 09:05:26;;;;;;;2.05;1.95;;;32.90;49.10;35.50;96663.00;;;;5010964;28;20232;-91
2022/05/11 09:07:55;;;;;;;1.70;1.60;;;33.30;48.90;35.80;96666.00;;;;5003389;28;20436;-91
2022/05/11 09:10:27;;;;;;;2.38;1.80;;;33.70;49.70;36.00;96666.00;;;;5011120;28;20285;-91
2022/05/11 09:12:58;;;;;;;1.67;1.58;;;34.00;48.50;36.20;96663.00;;;;5004188;28;20304;-91
2022/05/11 09:15:56;;;;;;;1.92;1.70;;;34.40;48.60;36.50;96665.00;;;;5011152;28;20680;-90
2022/05/11 09:18:35;;;;;;;1.40;1.40;;;34.80;48.20;36.80;96659.00;;;;5007720;28;20209;-91
2022/05/11 09:21:13;;;;;;;2.60;1.63;;;35.30;48.10;37.10;96663.00;;;;5005718;28;20197;-91
2022/05/11 09:23:44;;;;;;;1.60;1.50;;;35.70;46.70;37.30;96656.00;;;;5010153;28;20232;-91
2022/05/11 09:26:16;;;;;;;1.50;1.50;;;36.10;46.80;37.50;96657.00;;;;5009801;28;20678;-90
2022/05/11 09:28:46;;;;;;;1.42;1.33;;;36.50;46.20;37.70;96662.00;;;;5004174;28;20245;-91
2022/05/11 09:31:25;;;;;;;1.30;1.30;;;36.90;45.20;37.80;96657.00;;;;5022076;28;20194;-90
2022/05/11 09:34:00;;;;;;;2.35;1.70;;;37.20;43.90;37.90;96662.00;;;;5014232;28;20229;-91
2022/05/11 09:36:37;;;;;;;1.40;1.30;;;37.60;43.50;38.00;96664.00;;;;5010118;28;20207;-91
2022/05/11 09:39:13;;;;;;;1.75;1.60;;;37.90;41.10;38.10;96655.00;;;;5005219;28;20209;-92
2022/05/11 09:41:42;;;;;;;2.90;1.70;;;38.10;42.30;38.10;96664.00;;;;5011039;28;20233;-91
2022/05/11 09:44:19;;;;;;;1.80;1.50;;;38.30;42.20;38.20;96654.00;;;;5009761;28;20297;-91
2022/05/11 09:46:49;;;;;;;5.38;1.50;;;38.50;41.70;38.30;96645.00;;;;5010994;28;20194;-91
2022/05/11 09:49:28;;;;;;;1.48;1.38;;;38.70;40.60;38.30;96645.00;;;;5013271;28;20289;-90
2022/05/11 09:51:58;;;;;;;1.45;1.05;;;38.80;39.00;38.40;96643.00;;;;5004971;28;20214;-92
2022/05/11 09:54:33;;;;;;;1.42;1.17;;;38.90;40.40;38.40;96652.00;;;;5016573;28;20699;-92
2022/05/11 09:57:06;;;;;;;1.23;1.20;;;39.00;39.00;38.30;96645.00;;;;5004638;28;20318;-91
2022/05/11 09:59:37;;;;;;;1.40;1.30;;;39.10;39.80;38.30;96635.00;;;;5007829;28;20640;-91
2022/05/11 10:02:27;;;;;;;1.35;1.25;;;39.20;39.60;38.30;96637.00;;;;5018423;28;20598;-91
2022/05/11 10:05:03;;;;;;;1.40;1.30;;;39.20;36.70;38.30;96639.00;;;;5047499;23;20315;-80
2022/05/11 10:07:36;;;;;;;1.70;1.20;;;39.30;38.00;38.20;96648.00;;;;5058544;28;20195;-79
2022/05/11 10:10:12;;;;;;;1.10;1.10;;;39.30;38.60;38.20;96638.00;;;;5048240;28;20229;-79
2022/05/11 10:12:43;;;;;;;3.05;1.30;;;39.30;38.10;38.10;96631.00;;;;5035715;28;20588;-79
2022/05/11 10:24:09;;;;;;;1.30;1.30;;;39.10;37.00;37.70;96622.00;;;;5048200;28;20615;-87
2022/05/11 10:26:47;;;;;;;1.38;1.27;;;39.00;37.60;37.50;96634.00;;;;5047201;28;20200;-86
2022/05/11 10:29:28;;;;;;;1.23;1.17;;;38.90;36.20;37.40;96622.00;;;;5046514;28;20196;-86
2022/05/11 10:32:05;;;;;;;0.90;0.90;;;38.70;36.60;37.20;96625.00;;;;5041452;28;20726;-86
2022/05/11 10:34:44;;;;;;;1.20;1.20;;;38.50;37.00;37.10;96627.00;;;;5042677;28;20262;-86
2022/05/11 10:37:20;;;;;;;1.13;1.13;;;38.40;35.70;37.00;96622.00;;;;5045272;28;20229;-86
2022/05/11 10:40:09;;;;;;;1.20;1.20;;;38.20;35.80;36.80;96626.00;;;;5046866;28;20578;-87
2022/05/11 10:42:40;;;;;;;0.98;0.98;;;38.10;35.50;36.60;96613.00;;;;5048077;28;20228;-87
2022/05/11 10:45:18;;;;;;;1.38;1.20;;;37.90;36.00;36.40;96622.00;;;;5050375;28;20208;-87
2022/05/11 10:48:12;;;;;;;1.15;1.15;;;37.70;36.50;36.20;96607.00;;;;5050704;28;20284;-87
2022/05/11 10:50:52;;;;;;;1.75;1.65;;;37.30;37.20;36.00;96613.00;;;;5057646;28;20232;-87
2022/05/11 10:53:34;;;;;;;1.42;1.33;;;37.00;36.30;35.80;96610.00;;;;5049101;28;20201;-86
2022/05/11 10:56:24;;;;;;;2.15;1.40;;;36.70;35.50;35.50;96596.00;;;;5053756;28;20193;-88
2022/05/11 10:59:34;;;;;;;1.60;1.50;;;36.30;36.00;35.10;96598.00;;;;5052703;28;20205;-87
2022/05/11 11:02:40;;;;;;;1.33;1.27;;;35.80;36.80;34.70;96589.00;;;;5051361;28;20569;-86
2022/05/11 11:05:13;;;;;;;1.17;1.08;;;35.20;38.00;34.40;96597.00;;;;5058457;28;20663;-87
2022/05/11 11:07:52;;;;;;;1.55;1.35;;;34.80;37.60;34.10;96586.00;;;;5054568;28;20560;-87
2022/05/11 11:10:28;;;;;;;1.20;1.20;;;34.40;37.80;33.80;96589.00;;;;5047935;28;20203;-89
2022/05/11 11:13:39;;;;;;;1.20;1.20;;;34.00;38.20;33.50;96576.00;;;;5040777;28;20197;-87
2022/05/11 11:16:11;;;;;;;1.52;1.42;;;33.60;37.70;33.20;96575.00;;;;5034104;28;20300;-87
2022/05/11 11:18:42;;;;;;;1.30;1.20;;;33.20;38.90;32.90;96572.00;;;;5047111;28;20693;-87
2022/05/11 11:21:12;;;;;;;1.38;1.38;;;32.90;39.10;32.70;96573.00;;;;5053239;28;20200;-86
2022/05/11 11:23:42;;;;;;;1.98;1.45;;;32.60;39.60;32.50;96562.00;;;;5053107;28;20344;-88
2022/05/11 11:26:13;;;;;;;1.30;1.20;;;32.30;39.00;32.30;96557.00;;;;5052986;28;20197;-86
2022/05/11 11:29:21;;;;;;;1.13;1.13;;;32.00;38.60;32.00;96560.00;;;;5052932;28;20201;-87
2022/05/11 11:32:08;;;;;;;0.98;0.98;;;31.80;38.50;31.90;96556.00;;;;5041162;28;20196;-87
2022/05/11 11:34:38;;;;;;;1.45;1.40;;;31.60;38.50;31.70;96555.00;;;;5052660;28;20228;-87
2022/05/11 11:37:42;;;;;;;1.48;1.30;;;31.40;39.80;31.50;96546.00;;;;5053652;28;20208;-88
2022/05/11 11:40:36;;;;;;;1.58;1.48;;;31.20;39.40;31.40;96554.00;;;;5050075;28;20232;-87
2022/05/11 11:43:40;;;;;;;1.35;0.95;;;31.00;39.10;31.20;96544.00;;;;5033284;28;20300;-87
2022/05/11 11:46:09;;;;;;;0.93;0.93;;;30.80;39.60;31.10;96544.00;;;;5048731;28;20203;-87
2022/05/11 11:48:39;;;;;;;2.05;1.13;;;30.70;40.20;31.00;96533.00;;;;5053830;28;20663;-88
2022/05/11 11:51:31;;;;;;;1.27;1.20;;;30.60;39.60;30.90;96551.00;;;;5051959;28;20713;-87
2022/05/11 11:53:58;;;;;;;0.93;0.93;;;30.40;39.50;30.90;96540.00;;;;5053530;28;20224;-87
2022/05/11 11:56:52;;;;;;;1.33;1.00;;;30.40;39.70;30.80;96534.00;;;;5052523;28;20196;-87